sensor_id;sensor_type;location;lat;lon;timestamp;pressure;altitude;pressure_sealevel;temperature;humidity
18569;BME280;14780;48.316;-1.050;2024-03-23T00:54:49;99377.41;;;24.84;36.65
18569;BME280;14780;48.316;-1.050;2024-03-23T00:57:34;99377.16;;;24.85;36.55
18569;BME280;14780;48.316;-1.050;2024-03-23T01:00:19;99389.47;;;24.83;36.53
18569;BME280;14780;48.316;-1.050;2024-03-23T01:03:04;99396.56;;;24.84;36.57
18569;BME280;14780;48.316;-1.050;2024-03-23T01:05:49;99390.81;;;24.80;36.63
18569;BME280;14780;48.316;-1.050;2024-03-23T01:08:33;99398.19;;;24.80;36.63
18569;BME280;14780;48.316;-1.050;2024-03-23T01:11:18;99396.56;;;24.84;36.51
18569;BME280;14780;48.316;-1.050;2024-03-23T01:14:03;99397.38;;;24.79;36.46
18569;BME280;14780;48.316;-1.050;2024-03-23T01:16:48;99407.25;;;24.80;36.45
18569;BME280;14780;48.316;-1.050;2024-03-23T01:19:32;99393.81;;;24.79;36.65
18569;BME280;14780;48.316;-1.050;2024-03-23T01:22:17;99400.66;;;24.81;36.47
18569;BME280;14780;48.316;-1.050;2024-03-23T01:25:02;99388.06;;;24.75;36.43
18569;BME280;14780;48.316;-1.050;2024-03-23T01:27:47;99385.31;;;24.75;36.51
18569;BME280;14780;48.316;-1.050;2024-03-23T01:30:32;99383.69;;;24.79;36.39
18569;BME280;14780;48.316;-1.050;2024-03-23T01:33:17;99379.03;;;24.80;36.36
18569;BME280;14780;48.316;-1.050;2024-03-23T01:36:02;99396.28;;;24.80;36.29
18569;BME280;14780;48.316;-1.050;2024-03-23T01:38:47;99393.28;;;24.82;36.39
18569;BME280;14780;48.316;-1.050;2024-03-23T01:41:32;99385.06;;;24.77;36.25
18569;BME280;14780;48.316;-1.050;2024-03-23T01:44:16;99407.25;;;24.80;36.33
18569;BME280;14780;48.316;-1.050;2024-03-23T01:47:02;99412.44;;;24.77;36.11
18569;BME280;14780;48.316;-1.050;2024-03-23T01:49:47;99397.09;;;24.76;36.26
18569;BME280;14780;48.316;-1.050;2024-03-23T01:52:31;99398.19;;;24.75;36.15
18569;BME280;14780;48.316;-1.050;2024-03-23T01:55:16;99404.47;;;24.75;36.19
18569;BME280;14780;48.316;-1.050;2024-03-23T01:58:01;99401.19;;;24.73;36.08
18569;BME280;14780;48.316;-1.050;2024-03-23T02:00:45;99411.88;;;24.80;36.16
18569;BME280;14780;48.316;-1.050;2024-03-23T02:03:30;99399.56;;;24.72;36.34
18569;BME280;14780;48.316;-1.050;2024-03-23T02:06:15;99402.28;;;24.67;36.30
18569;BME280;14780;48.316;-1.050;2024-03-23T02:09:00;99405.56;;;24.74;36.24
18569;BME280;14780;48.316;-1.050;2024-03-23T02:11:45;99397.63;;;24.73;36.13
18569;BME280;14780;48.316;-1.050;2024-03-23T02:14:29;99405.56;;;24.74;36.02
18569;BME280;14780;48.316;-1.050;2024-03-23T02:17:14;99391.91;;;24.74;35.92
18569;BME280;14780;48.316;-1.050;2024-03-23T02:19:59;99390.50;;;24.67;36.07
18569;BME280;14780;48.316;-1.050;2024-03-23T02:22:45;99392.97;;;24.68;36.04
18569;BME280;14780;48.316;-1.050;2024-03-23T02:25:29;99389.72;;;24.71;35.89
18569;BME280;14780;48.316;-1.050;2024-03-23T02:28:14;99399.56;;;24.72;35.96
18569;BME280;14780;48.316;-1.050;2024-03-23T02:30:58;99397.63;;;24.68;35.90
18569;BME280;14780;48.316;-1.050;2024-03-23T02:33:45;99391.88;;;24.64;36.11
18569;BME280;14780;48.316;-1.050;2024-03-23T02:36:30;99391.59;;;24.61;35.95
18569;BME280;14780;48.316;-1.050;2024-03-23T02:39:15;99394.63;;;24.64;35.87
18569;BME280;14780;48.316;-1.050;2024-03-23T02:42:00;99396.78;;;24.62;35.86
18569;BME280;14780;48.316;-1.050;2024-03-23T02:44:46;99427.44;;;24.64;35.82
18569;BME280;14780;48.316;-1.050;2024-03-23T02:47:31;99454.78;;;24.59;35.99
18569;BME280;14780;48.316;-1.050;2024-03-23T02:50:16;99449.31;;;24.59;35.89
18569;BME280;14780;48.316;-1.050;2024-03-23T02:53:00;99460.81;;;24.61;35.96
18569;BME280;14780;48.316;-1.050;2024-03-23T02:55:45;99458.03;;;24.56;36.04
18569;BME280;14780;48.316;-1.050;2024-03-23T02:58:30;99431.25;;;24.58;35.89
18569;BME280;14780;48.316;-1.050;2024-03-23T03:01:14;99434.50;;;24.55;35.88
18569;BME280;14780;48.316;-1.050;2024-03-23T03:04:01;99420.31;;;24.58;35.83
18569;BME280;14780;48.316;-1.050;2024-03-23T03:06:47;99405.78;;;24.53;35.96
18569;BME280;14780;48.316;-1.050;2024-03-23T03:09:32;99400.03;;;24.49;35.88
18569;BME280;14780;48.316;-1.050;2024-03-23T03:12:17;99404.94;;;24.52;35.79
18569;BME280;14780;48.316;-1.050;2024-03-23T03:15:02;99415.38;;;24.55;35.78
18569;BME280;14780;48.316;-1.050;2024-03-23T03:17:47;99413.16;;;24.52;35.91
18569;BME280;14780;48.316;-1.050;2024-03-23T03:20:32;99409.88;;;24.50;35.82
18569;BME280;14780;48.316;-1.050;2024-03-23T03:23:17;99409.03;;;24.50;35.92
18569;BME280;14780;48.316;-1.050;2024-03-23T03:26:02;99404.94;;;24.52;35.78
18569;BME280;14780;48.316;-1.050;2024-03-23T03:28:47;99406.84;;;24.52;35.61
18569;BME280;14780;48.316;-1.050;2024-03-23T03:31:33;99398.34;;;24.48;35.69
18569;BME280;14780;48.316;-1.050;2024-03-23T03:34:17;99400.31;;;24.53;35.60
18569;BME280;14780;48.316;-1.050;2024-03-23T03:37:02;99399.44;;;24.47;35.65
18569;BME280;14780;48.316;-1.050;2024-03-23T03:39:47;99393.16;;;24.52;35.43
18569;BME280;14780;48.316;-1.050;2024-03-23T03:42:31;99401.09;;;24.43;35.56
18569;BME280;14780;48.316;-1.050;2024-03-23T03:45:16;99391.53;;;24.51;35.42
18569;BME280;14780;48.316;-1.050;2024-03-23T03:48:01;99399.44;;;24.47;35.40
18569;BME280;14780;48.316;-1.050;2024-03-23T03:50:46;99391.78;;;24.44;35.61
18569;BME280;14780;48.316;-1.050;2024-03-23T03:53:30;99401.09;;;24.43;35.51
18569;BME280;14780;48.316;-1.050;2024-03-23T03:56:15;99397.25;;;24.44;35.46
18569;BME280;14780;48.316;-1.050;2024-03-23T03:59:00;99393.97;;;24.42;35.46
18569;BME280;14780;48.316;-1.050;2024-03-23T04:01:45;99398.34;;;24.43;35.29
18569;BME280;14780;48.316;-1.050;2024-03-23T04:04:29;99406.28;;;24.40;35.35
18569;BME280;14780;48.316;-1.050;2024-03-23T04:07:14;99405.97;;;24.36;35.48
18569;BME280;14780;48.316;-1.050;2024-03-23T04:09:59;99400.50;;;24.31;35.26
18569;BME280;14780;48.316;-1.050;2024-03-23T04:12:44;99396.91;;;24.26;35.32
18569;BME280;14780;48.316;-1.050;2024-03-23T04:15:29;99403.22;;;24.31;35.43
18569;BME280;14780;48.316;-1.050;2024-03-23T04:18:13;99418.78;;;24.31;35.55
18569;BME280;14780;48.316;-1.050;2024-03-23T04:20:58;99408.13;;;24.34;35.25
18569;BME280;14780;48.316;-1.050;2024-03-23T04:23:43;99415.56;;;24.39;35.20
18569;BME280;14780;48.316;-1.050;2024-03-23T04:26:27;99416.09;;;24.36;35.22
18569;BME280;14780;48.316;-1.050;2024-03-23T04:29:12;99418.78;;;24.31;35.28
18569;BME280;14780;48.316;-1.050;2024-03-23T04:31:57;99421.28;;;24.32;35.22
18569;BME280;14780;48.316;-1.050;2024-03-23T04:34:42;99417.44;;;24.28;35.21
18569;BME280;14780;48.316;-1.050;2024-03-23T04:37:28;99418.50;;;24.27;35.32
18569;BME280;14780;48.316;-1.050;2024-03-23T04:40:13;99409.50;;;24.27;35.30
18569;BME280;14780;48.316;-1.050;2024-03-23T04:42:58;99410.03;;;24.29;35.34
18569;BME280;14780;48.316;-1.050;2024-03-23T04:45:42;99420.97;;;24.29;35.16
18569;BME280;14780;48.316;-1.050;2024-03-23T04:48:27;99415.50;;;24.29;35.17
18569;BME280;14780;48.316;-1.050;2024-03-23T04:51:21;99423.97;;;24.27;35.28
18569;BME280;14780;48.316;-1.050;2024-03-23T04:54:06;99425.06;;;24.21;35.23
18569;BME280;14780;48.316;-1.050;2024-03-23T04:56:51;99426.13;;;24.15;35.39
18569;BME280;14780;48.316;-1.050;2024-03-23T04:59:35;99423.69;;;24.24;35.13
18569;BME280;14780;48.316;-1.050;2024-03-23T05:02:20;99420.41;;;24.17;35.18
18569;BME280;14780;48.316;-1.050;2024-03-23T05:05:05;99417.97;;;24.20;35.08
18569;BME280;14780;48.316;-1.050;2024-03-23T05:07:52;99419.31;;;24.18;35.21
18569;BME280;14780;48.316;-1.050;2024-03-23T05:10:36;99408.38;;;24.23;35.05
18569;BME280;14780;48.316;-1.050;2024-03-23T05:13:21;99408.66;;;24.21;34.96
18569;BME280;14780;48.316;-1.050;2024-03-23T05:16:06;99406.19;;;24.20;35.12
18569;BME280;14780;48.316;-1.050;2024-03-23T05:18:50;99415.19;;;24.15;35.04
18569;BME280;14780;48.316;-1.050;2024-03-23T05:21:35;99409.13;;;24.08;35.04
18569;BME280;14780;48.316;-1.050;2024-03-23T05:24:19;99417.31;;;24.03;35.09
18569;BME280;14780;48.316;-1.050;2024-03-23T05:27:04;99413.72;;;23.98;35.34
18569;BME280;14780;48.316;-1.050;2024-03-23T05:29:49;99417.84;;;24.00;35.24
18569;BME280;14780;48.316;-1.050;2024-03-23T05:32:34;99420.88;;;24.04;35.19
18569;BME280;14780;48.316;-1.050;2024-03-23T05:35:19;99420.88;;;24.09;35.07
18569;BME280;14780;48.316;-1.050;2024-03-23T05:38:04;99417.56;;;24.02;35.24
18569;BME280;14780;48.316;-1.050;2024-03-23T05:40:55;99431.53;;;24.05;35.26
18569;BME280;14780;48.316;-1.050;2024-03-23T05:43:39;99421.41;;;24.06;35.20
18569;BME280;14780;48.316;-1.050;2024-03-23T05:46:24;99421.13;;;24.02;35.04
18569;BME280;14780;48.316;-1.050;2024-03-23T05:49:09;99419.22;;;24.03;35.06
18569;BME280;14780;48.316;-1.050;2024-03-23T05:51:53;99421.66;;;23.99;35.27
18569;BME280;14780;48.316;-1.050;2024-03-23T05:54:39;99427.13;;;23.99;35.03
18569;BME280;14780;48.316;-1.050;2024-03-23T05:57:24;99420.56;;;24.00;35.17
18569;BME280;14780;48.316;-1.050;2024-03-23T06:00:10;99430.69;;;24.00;35.20
18569;BME280;14780;48.316;-1.050;2024-03-23T06:03:00;99431.19;;;23.92;35.25
18569;BME280;14780;48.316;-1.050;2024-03-23T06:05:45;99434.75;;;23.97;35.15
18569;BME280;14780;48.316;-1.050;2024-03-23T06:08:29;99434.22;;;23.95;35.21
18569;BME280;14780;48.316;-1.050;2024-03-23T06:11:15;99436.91;;;23.90;35.22
18569;BME280;14780;48.316;-1.050;2024-03-23T06:13:59;99432.81;;;23.93;35.12
18569;BME280;14780;48.316;-1.050;2024-03-23T06:16:44;99431.72;;;23.94;35.08
18569;BME280;14780;48.316;-1.050;2024-03-23T06:19:29;99439.41;;;23.97;35.04
18569;BME280;14780;48.316;-1.050;2024-03-23T06:22:13;99451.16;;;23.97;35.04
18569;BME280;14780;48.316;-1.050;2024-03-23T06:24:58;99453.59;;;23.94;35.15
18569;BME280;14780;48.316;-1.050;2024-03-23T06:27:43;99463.34;;;23.85;35.23
18569;BME280;14780;48.316;-1.050;2024-03-23T06:30:27;99457.97;;;23.90;34.97
18569;BME280;14780;48.316;-1.050;2024-03-23T06:33:14;99460.69;;;23.90;35.03
18569;BME280;14780;48.316;-1.050;2024-03-23T06:35:59;99463.13;;;23.91;35.06
18569;BME280;14780;48.316;-1.050;2024-03-23T06:38:44;99457.66;;;23.91;35.11
18569;BME280;14780;48.316;-1.050;2024-03-23T06:41:29;99451.66;;;23.89;35.05
18569;BME280;14780;48.316;-1.050;2024-03-23T06:44:14;99443.16;;;23.86;35.13
18569;BME280;14780;48.316;-1.050;2024-03-23T06:46:59;99449.47;;;23.86;34.98
18569;BME280;14780;48.316;-1.050;2024-03-23T06:49:43;99459.56;;;23.86;35.00
18569;BME280;14780;48.316;-1.050;2024-03-23T06:52:28;99460.94;;;23.88;35.04
18569;BME280;14780;48.316;-1.050;2024-03-23T06:55:13;99468.31;;;23.88;35.00
18569;BME280;14780;48.316;-1.050;2024-03-23T06:57:58;99458.72;;;23.85;34.99
18569;BME280;14780;48.316;-1.050;2024-03-23T07:00:42;99458.22;;;23.88;34.94
18569;BME280;14780;48.316;-1.050;2024-03-23T07:03:27;99466.34;;;23.83;34.96
18569;BME280;14780;48.316;-1.050;2024-03-23T07:06:12;99471.31;;;23.86;34.95
18569;BME280;14780;48.316;-1.050;2024-03-23T07:08:57;99459.31;;;23.87;34.86
18569;BME280;14780;48.316;-1.050;2024-03-23T07:11:42;99458.25;;;23.93;34.77
18569;BME280;14780;48.316;-1.050;2024-03-23T07:14:27;99463.13;;;23.91;34.73
18569;BME280;14780;48.316;-1.050;2024-03-23T07:17:11;99459.91;;;23.94;34.67
18569;BME280;14780;48.316;-1.050;2024-03-23T07:19:56;99476.03;;;23.96;34.64
18569;BME280;14780;48.316;-1.050;2024-03-23T07:22:41;99473.56;;;23.94;34.58
18569;BME280;14780;48.316;-1.050;2024-03-23T07:25:26;99476.84;;;23.96;34.56
18569;BME280;14780;48.316;-1.050;2024-03-23T07:28:12;99475.16;;;23.90;34.82
18569;BME280;14780;48.316;-1.050;2024-03-23T07:31:08;99474.97;;;24.02;34.66
18569;BME280;14780;48.316;-1.050;2024-03-23T07:33:55;99462.94;;;23.98;34.63
18569;BME280;14780;48.316;-1.050;2024-03-23T07:36:40;99466.53;;;24.08;34.45
18569;BME280;14780;48.316;-1.050;2024-03-23T07:39:25;99470.88;;;23.99;34.56
18569;BME280;14780;48.316;-1.050;2024-03-23T07:42:12;99465.94;;;24.01;34.55
18569;BME280;14780;48.316;-1.050;2024-03-23T07:44:56;99477.41;;;23.98;34.48
18569;BME280;14780;48.316;-1.050;2024-03-23T07:47:41;99474.44;;;24.05;34.44
18569;BME280;14780;48.316;-1.050;2024-03-23T07:50:26;99483.69;;;23.99;34.46
18569;BME280;14780;48.316;-1.050;2024-03-23T07:53:10;99467.56;;;23.97;34.63
18569;BME280;14780;48.316;-1.050;2024-03-23T07:58:41;99461.00;;;23.98;34.68
18569;BME280;14780;48.316;-1.050;2024-03-23T08:01:26;99453.97;;;24.12;34.54
18569;BME280;14780;48.316;-1.050;2024-03-23T08:04:12;99440.31;;;24.07;34.46
18569;BME280;14780;48.316;-1.050;2024-03-23T08:06:57;99446.28;;;24.04;34.44
18569;BME280;14780;48.316;-1.050;2024-03-23T08:09:41;99442.16;;;24.02;34.59
18569;BME280;14780;48.316;-1.050;2024-03-23T08:12:26;99444.63;;;24.03;34.65
18569;BME280;14780;48.316;-1.050;2024-03-23T08:15:11;99435.34;;;23.99;34.73
18569;BME280;14780;48.316;-1.050;2024-03-23T08:17:56;99436.94;;;23.95;34.94
18569;BME280;14780;48.316;-1.050;2024-03-23T08:20:41;99430.41;;;24.01;34.92
18569;BME280;14780;48.316;-1.050;2024-03-23T08:23:29;99447.38;;;24.03;34.94
18569;BME280;14780;48.316;-1.050;2024-03-23T08:26:16;99447.38;;;24.03;35.30
18569;BME280;14780;48.316;-1.050;2024-03-23T08:29:04;99450.66;;;24.00;35.59
18569;BME280;14780;48.316;-1.050;2024-03-23T08:31:49;99451.53;;;24.11;35.56
18569;BME280;14780;48.316;-1.050;2024-03-23T08:34:34;99451.25;;;24.12;35.76
18569;BME280;14780;48.316;-1.050;2024-03-23T08:37:19;99457.78;;;24.06;36.13
18569;BME280;14780;48.316;-1.050;2024-03-23T08:40:03;99472.34;;;24.17;35.90
18569;BME280;14780;48.316;-1.050;2024-03-23T08:42:48;99469.31;;;24.18;36.14
18569;BME280;14780;48.316;-1.050;2024-03-23T08:45:33;99470.72;;;24.21;36.19
18569;BME280;14780;48.316;-1.050;2024-03-23T08:48:21;99474.28;;;24.21;36.10
18569;BME280;14780;48.316;-1.050;2024-03-23T08:51:07;99468.81;;;24.21;36.05
18569;BME280;14780;48.316;-1.050;2024-03-23T08:53:53;99476.72;;;24.23;36.17
18569;BME280;14780;48.316;-1.050;2024-03-23T08:56:38;99469.41;;;24.28;36.15
18569;BME280;14780;48.316;-1.050;2024-03-23T08:59:22;99464.44;;;24.25;36.13
18569;BME280;14780;48.316;-1.050;2024-03-23T09:02:08;99454.59;;;24.24;36.04
18569;BME280;14780;48.316;-1.050;2024-03-23T09:04:53;99460.63;;;24.26;36.02
18569;BME280;14780;48.316;-1.050;2024-03-23T09:07:37;99466.38;;;24.30;36.19
18569;BME280;14780;48.316;-1.050;2024-03-23T09:10:22;99484.72;;;24.34;36.14
18569;BME280;14780;48.316;-1.050;2024-03-23T09:13:07;99478.19;;;24.35;36.18
18569;BME280;14780;48.316;-1.050;2024-03-23T09:15:52;99475.41;;;24.30;36.33
18569;BME280;14780;48.316;-1.050;2024-03-23T09:18:43;99469.69;;;24.32;36.25
18569;BME280;14780;48.316;-1.050;2024-03-23T09:21:27;99470.19;;;24.29;36.40
18569;BME280;14780;48.316;-1.050;2024-03-23T09:24:12;99467.75;;;24.32;36.09
18569;BME280;14780;48.316;-1.050;2024-03-23T09:26:57;99466.13;;;24.31;36.57
18569;BME280;14780;48.316;-1.050;2024-03-23T09:29:41;99465.06;;;24.37;36.58
18569;BME280;14780;48.316;-1.050;2024-03-23T09:32:26;99458.78;;;24.42;36.36
18569;BME280;14780;48.316;-1.050;2024-03-23T09:35:11;99458.53;;;24.48;36.33
18569;BME280;14780;48.316;-1.050;2024-03-23T09:37:56;99456.38;;;24.50;36.24
18569;BME280;14780;48.316;-1.050;2024-03-23T09:40:42;99453.34;;;24.52;36.31
18569;BME280;14780;48.316;-1.050;2024-03-23T09:43:27;99458.00;;;24.51;36.23
18569;BME280;14780;48.316;-1.050;2024-03-23T09:46:12;99447.88;;;24.52;35.92
18569;BME280;14780;48.316;-1.050;2024-03-23T09:48:58;99453.09;;;24.53;35.61
18569;BME280;14780;48.316;-1.050;2024-03-23T09:51:42;99443.72;;;24.39;35.00
18569;BME280;14780;48.316;-1.050;2024-03-23T09:54:27;99445.66;;;24.39;34.83
18569;BME280;14780;48.316;-1.050;2024-03-23T09:57:12;99440.88;;;24.14;34.00
18569;BME280;14780;48.316;-1.050;2024-03-23T09:59:56;99430.34;;;23.91;33.56
18569;BME280;14780;48.316;-1.050;2024-03-23T10:02:42;99427.34;;;23.93;33.42
18569;BME280;14780;48.316;-1.050;2024-03-23T10:05:28;99427.13;;;23.99;33.45
18569;BME280;14780;48.316;-1.050;2024-03-23T10:10:58;99424.47;;;24.14;33.75
18569;BME280;14780;48.316;-1.050;2024-03-23T10:13:56;99430.50;;;24.16;33.64
18569;BME280;14780;48.316;-1.050;2024-03-23T10:16:42;99439.03;;;24.25;33.83
18569;BME280;14780;48.316;-1.050;2024-03-23T10:19:32;99428.66;;;24.32;33.84
18569;BME280;14780;48.316;-1.050;2024-03-23T10:22:22;99418.56;;;24.37;33.82
18569;BME280;14780;48.316;-1.050;2024-03-23T10:25:08;99416.34;;;24.29;33.23
18569;BME280;14780;48.316;-1.050;2024-03-23T10:28:00;99429.47;;;24.32;33.74
18569;BME280;14780;48.316;-1.050;2024-03-23T10:30:46;99417.44;;;24.33;33.29
18569;BME280;14780;48.316;-1.050;2024-03-23T10:33:30;99425.69;;;24.38;33.67
18569;BME280;14780;48.316;-1.050;2024-03-23T10:36:15;99420.19;;;24.38;33.70
18569;BME280;14780;48.316;-1.050;2024-03-23T10:39:00;99422.13;;;24.43;33.70
18569;BME280;14780;48.316;-1.050;2024-03-23T10:41:46;99417.22;;;24.45;33.94
18569;BME280;14780;48.316;-1.050;2024-03-23T10:44:33;99422.97;;;24.43;33.97
18569;BME280;14780;48.316;-1.050;2024-03-23T10:47:18;99435.56;;;24.44;34.12
18569;BME280;14780;48.316;-1.050;2024-03-23T10:50:06;99425.97;;;24.42;34.29
18569;BME280;14780;48.316;-1.050;2024-03-23T10:52:53;99436.06;;;24.41;34.45
18569;BME280;14780;48.316;-1.050;2024-03-23T10:55:41;99448.69;;;24.42;34.38
18569;BME280;14780;48.316;-1.050;2024-03-23T10:58:39;99453.88;;;24.44;34.63
18569;BME280;14780;48.316;-1.050;2024-03-23T11:01:25;99450.28;;;24.38;35.24
18569;BME280;14780;48.316;-1.050;2024-03-23T11:04:10;99465.09;;;24.42;35.37
18569;BME280;14780;48.316;-1.050;2024-03-23T11:06:54;99459.06;;;24.45;35.34
18569;BME280;14780;48.316;-1.050;2024-03-23T11:09:39;99452.47;;;24.41;36.35
18569;BME280;14780;48.316;-1.050;2024-03-23T11:12:29;99459.06;;;24.45;36.10
18569;BME280;14780;48.316;-1.050;2024-03-23T11:15:16;99438.56;;;24.48;36.16
18569;BME280;14780;48.316;-1.050;2024-03-23T11:18:06;99426.31;;;24.55;36.15
18569;BME280;14780;48.316;-1.050;2024-03-23T11:20:53;99428.53;;;24.63;36.24
18569;BME280;14780;48.316;-1.050;2024-03-23T11:23:38;99416.50;;;24.64;36.20
18569;BME280;14780;48.316;-1.050;2024-03-23T11:26:22;99409.09;;;24.65;36.14
18569;BME280;14780;48.316;-1.050;2024-03-23T11:29:13;99408.78;;;24.56;36.44
18569;BME280;14780;48.316;-1.050;2024-03-23T11:31:58;99399.00;;;24.75;37.42
18569;BME280;14780;48.316;-1.050;2024-03-23T11:34:43;99406.97;;;24.87;38.27
18569;BME280;14780;48.316;-1.050;2024-03-23T11:37:28;99413.25;;;24.92;38.83
18569;BME280;14780;48.316;-1.050;2024-03-23T11:40:19;99424.78;;;24.94;38.99
18569;BME280;14780;48.316;-1.050;2024-03-23T11:43:06;99430.25;;;24.94;38.43
18569;BME280;14780;48.316;-1.050;2024-03-23T11:45:52;99431.06;;;24.90;39.37
18569;BME280;14780;48.316;-1.050;2024-03-23T11:48:37;99437.63;;;24.94;38.98
18569;BME280;14780;48.316;-1.050;2024-03-23T11:51:23;99443.13;;;24.94;38.80
18569;BME280;14780;48.316;-1.050;2024-03-23T11:54:10;99450.50;;;24.93;39.35
18569;BME280;14780;48.316;-1.050;2024-03-23T11:56:59;99438.19;;;24.96;40.12
18569;BME280;14780;48.316;-1.050;2024-03-23T11:59:44;99436.84;;;24.93;40.17
18569;BME280;14780;48.316;-1.050;2024-03-23T12:02:29;99435.16;;;24.92;40.51
18569;BME280;14780;48.316;-1.050;2024-03-23T12:05:17;99414.94;;;25.03;39.66
18569;BME280;14780;48.316;-1.050;2024-03-23T12:08:22;99393.31;;;24.97;39.62
18569;BME280;14780;48.316;-1.050;2024-03-23T12:11:15;99386.47;;;24.94;39.24
18569;BME280;14780;48.316;-1.050;2024-03-23T12:14:00;99383.72;;;24.94;39.38
18569;BME280;14780;48.316;-1.050;2024-03-23T12:19:21;99372.75;;;24.89;39.54
18569;BME280;14780;48.316;-1.050;2024-03-23T12:22:07;99378.78;;;24.96;39.22
18569;BME280;14780;48.316;-1.050;2024-03-23T12:24:53;99376.03;;;24.91;39.09
18569;BME280;14780;48.316;-1.050;2024-03-23T12:27:38;99371.41;;;24.92;39.10
18569;BME280;14780;48.316;-1.050;2024-03-23T12:30:23;99372.50;;;25.01;38.99
18569;BME280;14780;48.316;-1.050;2024-03-23T12:33:07;99363.19;;;25.07;38.71
18569;BME280;14780;48.316;-1.050;2024-03-23T12:35:53;99360.72;;;25.05;38.66
18569;BME280;14780;48.316;-1.050;2024-03-23T12:38:38;99345.69;;;25.13;38.54
18569;BME280;14780;48.316;-1.050;2024-03-23T12:41:23;99336.09;;;25.15;38.50
18569;BME280;14780;48.316;-1.050;2024-03-23T12:44:08;99335.25;;;25.20;38.35
18569;BME280;14780;48.316;-1.050;2024-03-23T12:46:55;99335.00;;;25.16;38.10
18569;BME280;14780;48.316;-1.050;2024-03-23T12:49:40;99325.13;;;25.10;38.06
18569;BME280;14780;48.316;-1.050;2024-03-23T12:52:25;99326.78;;;25.11;37.91
18569;BME280;14780;48.316;-1.050;2024-03-23T12:55:12;99316.91;;;25.05;37.75
18569;BME280;14780;48.316;-1.050;2024-03-23T12:57:57;99330.63;;;25.00;37.52
18569;BME280;14780;48.316;-1.050;2024-03-23T13:00:42;99311.16;;;25.02;36.96
18569;BME280;14780;48.316;-1.050;2024-03-23T13:03:28;99302.97;;;24.97;37.01
18569;BME280;14780;48.316;-1.050;2024-03-23T13:06:13;99297.75;;;24.90;36.26
18569;BME280;14780;48.316;-1.050;2024-03-23T13:08:58;99285.72;;;24.96;36.69
18569;BME280;14780;48.316;-1.050;2024-03-23T13:11:42;99277.50;;;24.96;36.55
18569;BME280;14780;48.316;-1.050;2024-03-23T13:14:27;99274.22;;;24.89;36.28
18569;BME280;14780;48.316;-1.050;2024-03-23T13:17:12;99280.50;;;25.00;36.17
18569;BME280;14780;48.316;-1.050;2024-03-23T13:19:57;99262.72;;;24.97;35.98
18569;BME280;14780;48.316;-1.050;2024-03-23T13:22:42;99262.19;;;24.95;35.91
18569;BME280;14780;48.316;-1.050;2024-03-23T13:25:26;99249.59;;;24.94;35.97
18569;BME280;14780;48.316;-1.050;2024-03-23T13:28:11;99242.47;;;24.93;35.71
18569;BME280;14780;48.316;-1.050;2024-03-23T13:30:57;99235.88;;;24.99;35.55
18569;BME280;14780;48.316;-1.050;2024-03-23T13:33:48;99239.97;;;25.02;35.40
18569;BME280;14780;48.316;-1.050;2024-03-23T13:36:33;99235.63;;;25.01;35.54
18569;BME280;14780;48.316;-1.050;2024-03-23T13:39:17;99232.59;;;24.92;35.44
18569;BME280;14780;48.316;-1.050;2024-03-23T13:42:02;99235.09;;;24.84;35.07
18569;BME280;14780;48.316;-1.050;2024-03-23T13:44:48;99237.84;;;24.84;35.37
18569;BME280;14780;48.316;-1.050;2024-03-23T13:47:34;99233.19;;;24.79;35.11
18569;BME280;14780;48.316;-1.050;2024-03-23T13:50:19;99223.88;;;24.75;35.18
18569;BME280;14780;48.316;-1.050;2024-03-23T13:53:03;99224.16;;;24.69;35.47
18569;BME280;14780;48.316;-1.050;2024-03-23T13:55:48;99223.88;;;24.80;35.29
18569;BME280;14780;48.316;-1.050;2024-03-23T13:58:33;99219.78;;;24.78;35.28
18569;BME280;14780;48.316;-1.050;2024-03-23T14:01:18;99216.19;;;24.77;35.47
18569;BME280;14780;48.316;-1.050;2024-03-23T14:04:02;99216.19;;;24.77;35.50
18569;BME280;14780;48.316;-1.050;2024-03-23T14:06:47;99205.25;;;24.77;35.42
18569;BME280;14780;48.316;-1.050;2024-03-23T14:09:32;99204.72;;;24.70;35.42
18569;BME280;14780;48.316;-1.050;2024-03-23T14:12:17;99195.97;;;24.73;35.32
18569;BME280;14780;48.316;-1.050;2024-03-23T14:15:03;99200.31;;;24.84;35.34
18569;BME280;14780;48.316;-1.050;2024-03-23T14:17:49;99198.69;;;24.83;35.34
18569;BME280;14780;48.316;-1.050;2024-03-23T14:20:34;99183.91;;;24.84;35.14
18569;BME280;14780;48.316;-1.050;2024-03-23T14:23:19;99175.16;;;24.82;35.22
18569;BME280;14780;48.316;-1.050;2024-03-23T14:26:03;99167.47;;;24.89;35.11
18569;BME280;14780;48.316;-1.050;2024-03-23T14:28:49;99150.50;;;24.92;35.03
18569;BME280;14780;48.316;-1.050;2024-03-23T14:31:35;99138.47;;;24.88;35.05
18569;BME280;14780;48.316;-1.050;2024-03-23T14:34:20;99137.91;;;24.96;35.05
18569;BME280;14780;48.316;-1.050;2024-03-23T14:37:05;99134.59;;;25.04;34.90
18569;BME280;14780;48.316;-1.050;2024-03-23T14:39:50;99115.94;;;25.06;34.96
18569;BME280;14780;48.316;-1.050;2024-03-23T14:42:35;99115.69;;;25.08;34.67
18569;BME280;14780;48.316;-1.050;2024-03-23T14:45:23;99125.00;;;25.07;34.86
18569;BME280;14780;48.316;-1.050;2024-03-23T14:48:08;99111.06;;;25.03;35.00
18569;BME280;14780;48.316;-1.050;2024-03-23T14:50:59;99107.53;;;24.98;34.93
18569;BME280;14780;48.316;-1.050;2024-03-23T14:53:49;99094.41;;;24.90;34.62
18569;BME280;14780;48.316;-1.050;2024-03-23T14:56:34;99107.00;;;24.91;34.76
18569;BME280;14780;48.316;-1.050;2024-03-23T14:59:19;99109.19;;;24.89;34.87
18569;BME280;14780;48.316;-1.050;2024-03-23T15:02:05;99108.66;;;24.82;34.61
18569;BME280;14780;48.316;-1.050;2024-03-23T15:04:50;99106.16;;;24.90;34.86
18569;BME280;14780;48.316;-1.050;2024-03-23T15:07:35;99093.00;;;24.92;35.03
18569;BME280;14780;48.316;-1.050;2024-03-23T15:10:21;99100.69;;;24.90;35.41
18569;BME280;14780;48.316;-1.050;2024-03-23T15:13:05;99089.19;;;24.93;35.14
18569;BME280;14780;48.316;-1.050;2024-03-23T15:15:50;99077.41;;;24.93;35.19
18569;BME280;14780;48.316;-1.050;2024-03-23T15:18:37;99098.78;;;24.91;35.22
18569;BME280;14780;48.316;-1.050;2024-03-23T15:21:22;99117.09;;;24.90;35.42
18569;BME280;14780;48.316;-1.050;2024-03-23T15:24:07;99105.09;;;24.86;35.41
18569;BME280;14780;48.316;-1.050;2024-03-23T15:26:55;99096.03;;;24.91;35.54